Ana Sayfa
METAR-TAF:

METAR-TAF

Havaalanları :

Mykonos, Yunanistan

Enlem: 37-26-09N, Boylam: 025-20-45E, yükseklik: 123 m

Güncel hava durumu gözlemi

Rapor saat 07:20 UTC de 16 dakika önce yapıldı.
Rüzgar kuzey/kuzeydoğudan 12 kt
Sıcaklık 14°C
Nem 58%
Basınç 1018 hPa
Görüş mesafesi 10 km veya daha fazla
1500 m altında bulut yok ve kümülonimbus yok

METAR: LGMK 250720Z 03012KT CAVOK 14/06 Q1018

Saat: 09:36 (07:36 UTC)

Tahmin

Rapor saat 05:00 UTC de 2 saat ve 36 dakika önce yapıldı.
Ayın 25'si saat 06 UTC'den ayın 25'si saat 15 UTC'ye kadar geçerli Tahmin
Rüzgar kuzey/kuzeydoğudan 13 kt
Görüş mesafesi 10 km veya daha fazla
2500 ft yükseklikte az bulutlu

TAF: LGMK 250500Z 2506/2515 02013KT 9999 FEW025

4.000'den fazla havaalanı için hava durumu gözlemleri ve tahminleri (METAR ve TAF raporları).

Kullanılabilir istasyonlar harita üzerinde sarı ve kırmızı noktalarla gösterilir.

İstasyonun adını görmek için fareyi noktanın üzerinde gezdirin.

Sonrasında hava gözlem ve tahminlerini görmek için tıklayın.

Haritayı değiştirmek için: yaklaştırmak için siyah artı işaretli yeşil düğmeye ve uzaklaştırmak için de eksi işaretli düğmeye hızla tıklayın; bitişik haritalar için yeşil okları kullanın.


METAR-TAF: